Time;durP1;ratioP1;P1;durP2;ratioP2;P2;SDS_P1;SDS_P2;PMS_P1;PMS_P2;Temp;Humidity;BMP_temperature;BMP_pressure;BME280_temperature;BME280_humidity;BME280_pressure;Samples;Min_cycle;Max_cycle;Signal;HPM_P1;HPM_P2
2021/06/16 00:01:45;;;;;;;3.22;1.60;;;25.30;38.70;;;;;;4987900;28;20211;-52
2021/06/16 00:04:11;;;;;;;1.95;1.85;;;25.30;38.70;;;;;;4990772;28;20207;-44
2021/06/16 00:06:38;;;;;;;1.88;1.70;;;25.30;38.70;;;;;;4996789;28;20200;-44
2021/06/16 00:09:04;;;;;;;2.42;1.85;;;25.30;38.80;;;;;;4999523;28;20311;-40
2021/06/16 00:11:31;;;;;;;2.58;1.67;;;25.30;38.70;;;;;;4981126;28;20228;-50
2021/06/16 00:13:57;;;;;;;2.03;1.70;;;25.30;38.70;;;;;;4986615;28;20615;-50
2021/06/16 00:16:24;;;;;;;1.85;1.75;;;25.30;38.80;;;;;;4990117;28;20252;-45
2021/06/16 00:18:50;;;;;;;1.67;1.58;;;25.30;38.80;;;;;;4992539;28;20241;-44
2021/06/16 00:21:17;;;;;;;2.30;1.90;;;25.30;38.80;;;;;;4990871;28;20207;-50
2021/06/16 00:23:43;;;;;;;1.70;1.50;;;25.30;38.80;;;;;;4992289;28;20282;-41
2021/06/16 00:26:10;;;;;;;2.00;1.70;;;25.30;38.80;;;;;;4996734;28;20282;-40
2021/06/16 00:28:36;;;;;;;1.75;1.65;;;25.30;38.80;;;;;;5003101;28;20298;-53
2021/06/16 00:31:02;;;;;;;1.98;1.50;;;25.30;38.80;;;;;;4990969;28;20208;-42
2021/06/16 00:33:29;;;;;;;1.73;1.63;;;25.30;38.80;;;;;;4997535;28;20203;-43
2021/06/16 00:35:56;;;;;;;1.98;1.77;;;25.30;38.80;;;;;;5005021;28;20203;-46
2021/06/16 00:38:22;;;;;;;1.88;1.77;;;25.30;38.80;;;;;;4991664;28;20313;-47
2021/06/16 00:40:50;;;;;;;1.52;1.42;;;25.30;38.80;;;;;;4995201;28;20204;-41
2021/06/16 00:43:17;;;;;;;1.50;1.40;;;25.30;38.80;;;;;;5007875;28;20298;-39
2021/06/16 00:45:43;;;;;;;2.13;1.70;;;25.30;38.80;;;;;;5006934;28;20670;-43
2021/06/16 00:48:09;;;;;;;1.52;1.42;;;25.30;38.90;;;;;;4989048;28;20714;-39
2021/06/16 00:50:36;;;;;;;1.85;1.75;;;25.30;38.90;;;;;;5000811;28;20577;-39
2021/06/16 00:53:02;;;;;;;1.90;1.75;;;25.30;38.90;;;;;;4992632;28;20532;-42
2021/06/16 00:55:29;;;;;;;1.95;1.75;;;25.30;38.90;;;;;;4991445;28;20616;-52
2021/06/16 00:57:55;;;;;;;1.80;1.52;;;25.30;38.90;;;;;;4986663;28;20607;-39
2021/06/16 01:00:22;;;;;;;1.70;1.60;;;25.30;39.00;;;;;;4995769;28;20592;-42
2021/06/16 01:02:48;;;;;;;1.63;1.52;;;25.30;38.90;;;;;;5001895;28;20231;-44
2021/06/16 01:05:15;;;;;;;1.60;1.50;;;25.30;39.00;;;;;;4991199;28;20218;-43
2021/06/16 01:07:41;;;;;;;1.60;1.50;;;25.30;39.00;;;;;;4992789;28;20202;-45
2021/06/16 01:10:08;;;;;;;1.98;1.73;;;25.30;39.10;;;;;;4992902;28;20220;-42
2021/06/16 01:12:34;;;;;;;2.28;1.60;;;25.30;39.10;;;;;;4998511;28;20536;-42
2021/06/16 01:15:01;;;;;;;2.47;1.90;;;25.30;39.10;;;;;;4992153;28;20550;-44
2021/06/16 01:17:27;;;;;;;1.80;1.70;;;25.30;39.10;;;;;;5005820;28;20664;-45
2021/06/16 01:19:54;;;;;;;1.95;1.52;;;25.30;39.10;;;;;;4999180;28;20715;-49
2021/06/16 01:22:20;;;;;;;1.50;1.40;;;25.30;39.00;;;;;;4991731;28;20566;-41
2021/06/16 01:24:46;;;;;;;1.80;1.70;;;25.30;39.00;;;;;;4991693;28;20211;-43
2021/06/16 01:27:13;;;;;;;1.80;1.60;;;25.30;39.20;;;;;;4989775;28;20315;-44
2021/06/16 01:29:40;;;;;;;1.73;1.63;;;25.30;39.10;;;;;;4991447;28;20275;-42
2021/06/16 01:32:06;;;;;;;1.85;1.70;;;25.30;39.10;;;;;;4998553;28;20195;-52
2021/06/16 01:34:34;;;;;;;1.48;1.38;;;25.30;39.10;;;;;;5000097;28;20290;-43
2021/06/16 01:37:01;;;;;;;1.90;1.70;;;25.30;39.10;;;;;;5008219;28;20207;-41
2021/06/16 01:39:27;;;;;;;1.75;1.65;;;25.30;39.20;;;;;;4994419;28;20239;-40
2021/06/16 01:41:53;;;;;;;1.60;1.50;;;25.30;39.20;;;;;;4990967;28;20211;-40
2021/06/16 01:44:20;;;;;;;1.83;1.70;;;25.30;39.20;;;;;;5004583;28;20202;-40
2021/06/16 01:46:46;;;;;;;2.00;1.80;;;25.30;39.20;;;;;;5006154;28;20205;-39
2021/06/16 01:49:13;;;;;;;1.70;1.60;;;25.30;39.20;;;;;;5000190;28;20352;-49
2021/06/16 01:51:39;;;;;;;1.67;1.58;;;25.30;39.20;;;;;;4996384;28;20206;-42
2021/06/16 01:54:07;;;;;;;1.60;1.50;;;25.30;39.20;;;;;;4993394;28;20208;-45
2021/06/16 01:56:34;;;;;;;1.85;1.70;;;25.30;39.20;;;;;;4994252;28;20668;-43
2021/06/16 01:59:00;;;;;;;1.85;1.60;;;25.30;39.20;;;;;;4990497;28;20590;-45
2021/06/16 02:01:27;;;;;;;1.50;1.40;;;25.30;39.20;;;;;;4990073;28;20591;-38
2021/06/16 02:03:54;;;;;;;3.00;1.73;;;25.30;39.20;;;;;;4986845;28;20577;-47
2021/06/16 02:06:20;;;;;;;2.05;1.50;;;25.30;39.20;;;;;;4983775;28;20214;-46
2021/06/16 02:08:47;;;;;;;2.17;1.70;;;25.30;39.20;;;;;;4990513;28;20223;-56
2021/06/16 02:11:13;;;;;;;1.67;1.58;;;25.30;39.20;;;;;;4989773;28;20207;-56
2021/06/16 02:13:40;;;;;;;1.80;1.70;;;25.30;39.20;;;;;;4991154;28;20302;-47
2021/06/16 02:16:06;;;;;;;1.77;1.67;;;25.30;39.20;;;;;;4989701;28;20278;-42
2021/06/16 02:18:33;;;;;;;1.70;1.60;;;25.30;39.20;;;;;;4990268;28;20350;-41
2021/06/16 02:20:59;;;;;;;1.80;1.70;;;25.30;39.20;;;;;;4988998;28;20206;-45
2021/06/16 02:23:26;;;;;;;1.75;1.65;;;25.30;39.20;;;;;;4989746;28;20211;-44
2021/06/16 02:25:52;;;;;;;1.50;1.40;;;25.30;39.20;;;;;;4991120;28;20200;-39
2021/06/16 02:28:19;;;;;;;1.60;1.50;;;25.30;39.20;;;;;;4991154;28;20232;-45
2021/06/16 02:30:45;;;;;;;3.33;1.48;;;25.30;39.20;;;;;;4989540;28;20242;-45
2021/06/16 02:33:12;;;;;;;2.13;1.45;;;25.30;39.20;;;;;;4990247;28;20207;-48
2021/06/16 02:35:38;;;;;;;1.55;1.45;;;25.30;39.20;;;;;;4989106;28;20302;-42
2021/06/16 02:38:04;;;;;;;1.80;1.70;;;25.30;39.20;;;;;;4992216;28;20230;-47
2021/06/16 02:40:31;;;;;;;2.20;2.00;;;25.30;39.20;;;;;;4993598;28;20242;-50
2021/06/16 02:42:57;;;;;;;1.63;1.52;;;25.30;39.20;;;;;;4992502;28;20203;-44
2021/06/16 02:45:24;;;;;;;1.90;1.80;;;25.30;39.20;;;;;;4994278;28;20208;-44
2021/06/16 02:47:50;;;;;;;1.63;1.52;;;25.30;39.20;;;;;;4993527;28;20270;-44
2021/06/16 02:50:17;;;;;;;2.58;1.65;;;25.30;39.20;;;;;;4993713;28;20208;-46
2021/06/16 02:52:43;;;;;;;3.63;1.33;;;25.30;39.20;;;;;;4992419;28;20744;-45
2021/06/16 02:55:10;;;;;;;2.33;1.67;;;25.30;39.20;;;;;;4993593;28;20640;-45
2021/06/16 02:57:36;;;;;;;1.65;1.52;;;25.30;39.20;;;;;;4993345;28;20215;-43
2021/06/16 03:00:02;;;;;;;1.45;1.35;;;25.30;39.10;;;;;;4993267;28;20227;-48
2021/06/16 03:02:29;;;;;;;1.65;1.50;;;25.30;39.20;;;;;;4993405;28;20206;-41
2021/06/16 03:04:55;;;;;;;1.98;1.75;;;25.30;39.20;;;;;;5003405;28;20309;-45
2021/06/16 03:07:22;;;;;;;1.63;1.52;;;25.20;39.10;;;;;;4985903;28;20220;-46
2021/06/16 03:09:48;;;;;;;1.60;1.50;;;25.30;39.20;;;;;;4993248;28;20212;-38
2021/06/16 03:12:15;;;;;;;1.98;1.75;;;25.30;39.20;;;;;;4990823;28;20211;-44
2021/06/16 03:14:41;;;;;;;1.60;1.48;;;25.20;39.10;;;;;;4985578;28;20199;-42
2021/06/16 03:17:07;;;;;;;1.60;1.50;;;25.20;39.10;;;;;;4993695;28;20226;-40
2021/06/16 03:19:34;;;;;;;1.95;1.50;;;25.20;39.10;;;;;;4976677;28;20303;-47
2021/06/16 03:22:00;;;;;;;1.63;1.52;;;25.30;39.20;;;;;;4991881;28;20262;-49
2021/06/16 03:24:27;;;;;;;1.75;1.50;;;25.30;39.20;;;;;;4993095;28;20214;-45
2021/06/16 03:26:53;;;;;;;2.03;1.83;;;25.30;39.20;;;;;;4991995;28;20203;-55
2021/06/16 03:29:20;;;;;;;1.92;1.70;;;25.20;39.10;;;;;;4993541;28;20196;-48
2021/06/16 03:31:46;;;;;;;1.98;1.60;;;25.30;39.20;;;;;;4988474;28;20207;-45
2021/06/16 03:34:12;;;;;;;1.52;1.33;;;25.20;39.10;;;;;;4994052;28;20200;-44
2021/06/16 03:36:39;;;;;;;2.15;1.55;;;25.30;39.20;;;;;;4992648;28;20203;-43
2021/06/16 03:39:05;;;;;;;1.52;1.42;;;25.30;39.20;;;;;;4992784;28;20231;-48
2021/06/16 03:41:32;;;;;;;1.88;1.60;;;25.20;39.10;;;;;;4984843;28;20211;-39
2021/06/16 03:43:59;;;;;;;1.63;1.52;;;25.30;39.20;;;;;;4988608;28;20286;-43
2021/06/16 03:46:25;;;;;;;1.55;1.45;;;25.30;39.20;;;;;;4992279;28;20208;-50
2021/06/16 03:48:51;;;;;;;1.80;1.70;;;25.30;39.20;;;;;;4991600;28;20228;-47
2021/06/16 03:51:18;;;;;;;3.25;1.45;;;25.30;39.20;;;;;;4991908;28;20226;-47
2021/06/16 03:53:44;;;;;;;1.63;1.52;;;25.30;39.20;;;;;;4991562;28;20212;-45
2021/06/16 03:56:11;;;;;;;1.52;1.42;;;25.30;39.20;;;;;;4993280;28;20204;-44
2021/06/16 03:58:37;;;;;;;2.03;1.80;;;25.30;39.20;;;;;;4992509;28;20228;-40
2021/06/16 04:01:04;;;;;;;1.60;1.50;;;25.30;39.20;;;;;;4991239;28;20267;-39
2021/06/16 04:03:30;;;;;;;1.98;1.85;;;25.30;39.20;;;;;;4991333;28;20292;-45
2021/06/16 04:05:57;;;;;;;1.75;1.65;;;25.30;39.20;;;;;;4992538;28;20200;-42
2021/06/16 04:08:23;;;;;;;1.75;1.50;;;25.30;39.20;;;;;;4992891;28;20223;-48
2021/06/16 04:10:50;;;;;;;1.83;1.73;;;25.20;39.10;;;;;;4994459;28;20224;-44
2021/06/16 04:13:16;;;;;;;1.90;1.70;;;25.20;39.10;;;;;;5004020;28;20211;-40
2021/06/16 04:15:42;;;;;;;1.75;1.63;;;25.20;39.10;;;;;;5006035;28;20207;-46
2021/06/16 04:18:09;;;;;;;1.50;1.40;;;25.20;39.10;;;;;;4995505;28;20796;-41
2021/06/16 04:20:35;;;;;;;2.05;1.85;;;25.30;39.20;;;;;;4992747;28;20610;-39
2021/06/16 04:23:02;;;;;;;2.33;1.70;;;25.30;39.20;;;;;;4991736;28;20558;-46
2021/06/16 04:25:28;;;;;;;1.40;1.30;;;25.30;39.20;;;;;;4993042;28;20286;-42
2021/06/16 04:27:55;;;;;;;2.72;1.65;;;25.30;39.20;;;;;;4990548;28;20318;-49
2021/06/16 04:30:22;;;;;;;2.88;1.75;;;25.30;39.20;;;;;;4991547;28;20231;-43
2021/06/16 04:32:48;;;;;;;1.70;1.52;;;25.20;39.10;;;;;;4991297;28;20215;-43
2021/06/16 04:35:14;;;;;;;2.03;1.60;;;25.30;39.20;;;;;;4994311;28;20202;-39
2021/06/16 04:37:41;;;;;;;1.73;1.63;;;25.30;39.20;;;;;;4995329;28;20220;-41
2021/06/16 04:40:07;;;;;;;2.00;1.50;;;25.30;39.20;;;;;;4992195;28;20224;-40
2021/06/16 04:42:34;;;;;;;1.65;1.55;;;25.20;39.10;;;;;;4990825;28;20287;-43
2021/06/16 04:45:00;;;;;;;1.52;1.42;;;25.30;39.20;;;;;;4992060;28;20318;-46
2021/06/16 04:47:27;;;;;;;1.38;1.27;;;25.30;39.20;;;;;;4990846;28;20220;-41
2021/06/16 04:49:53;;;;;;;1.88;1.77;;;25.20;39.10;;;;;;4992091;28;20203;-41
2021/06/16 04:52:19;;;;;;;1.70;1.60;;;25.30;39.20;;;;;;4990144;28;20214;-41
2021/06/16 04:54:46;;;;;;;2.35;1.63;;;25.20;39.10;;;;;;4990853;28;20214;-46
2021/06/16 04:57:12;;;;;;;1.60;1.50;;;25.30;39.20;;;;;;5009694;28;20226;-41
2021/06/16 04:59:39;;;;;;;1.60;1.35;;;25.30;39.20;;;;;;4992803;28;20236;-40
2021/06/16 05:02:05;;;;;;;1.52;1.42;;;25.30;39.20;;;;;;4995565;28;20239;-47
2021/06/16 05:04:32;;;;;;;2.28;1.40;;;25.30;39.20;;;;;;4991927;28;20200;-53
2021/06/16 05:06:58;;;;;;;1.60;1.50;;;25.20;39.10;;;;;;4990998;28;20249;-43
2021/06/16 05:09:25;;;;;;;2.35;1.70;;;25.20;39.10;;;;;;4991591;28;20203;-48
2021/06/16 05:11:51;;;;;;;1.77;1.60;;;25.20;39.10;;;;;;4990797;28;20216;-47
2021/06/16 05:14:18;;;;;;;2.33;1.42;;;25.20;39.10;;;;;;4999885;28;20214;-47
2021/06/16 05:16:44;;;;;;;2.42;2.22;;;25.30;39.20;;;;;;4990894;28;20238;-39
2021/06/16 05:19:15;;;;;;;2.53;1.60;;;25.30;39.20;;;;;;4993048;28;20195;-49
2021/06/16 05:21:42;;;;;;;1.83;1.52;;;25.30;39.20;;;;;;4989616;28;20200;-50
2021/06/16 05:24:08;;;;;;;1.60;1.50;;;25.20;39.10;;;;;;5000304;28;20205;-43
2021/06/16 05:26:35;;;;;;;2.30;1.70;;;25.30;39.20;;;;;;4997478;28;20303;-44
2021/06/16 05:29:02;;;;;;;1.60;1.50;;;25.30;39.20;;;;;;4992868;28;20199;-42
2021/06/16 05:31:28;;;;;;;1.52;1.40;;;25.30;39.20;;;;;;4989736;28;20298;-39
2021/06/16 05:33:55;;;;;;;2.15;1.58;;;25.30;39.20;;;;;;4991758;28;20204;-39
2021/06/16 05:36:21;;;;;;;1.70;1.60;;;25.30;39.20;;;;;;4998018;28;20667;-40
2021/06/16 05:38:48;;;;;;;1.77;1.40;;;25.30;39.20;;;;;;4985456;28;20226;-38
2021/06/16 05:41:15;;;;;;;3.53;1.85;;;25.30;39.20;;;;;;4989068;28;20277;-38
2021/06/16 05:43:41;;;;;;;2.28;1.75;;;25.40;39.20;;;;;;4993808;28;20282;-40
2021/06/16 05:46:07;;;;;;;1.88;1.60;;;25.40;39.20;;;;;;4992421;28;20206;-38
2021/06/16 05:48:34;;;;;;;3.03;1.65;;;25.40;39.20;;;;;;4991719;28;20205;-42
2021/06/16 05:51:00;;;;;;;4.32;2.50;;;25.40;39.20;;;;;;5000999;28;20203;-41
2021/06/16 05:53:27;;;;;;;7.63;3.30;;;25.20;38.10;;;;;;4982947;28;20195;-55
2021/06/16 05:55:53;;;;;;;7.07;3.40;;;24.90;38.20;;;;;;4988076;28;20208;-43
2021/06/16 05:58:20;;;;;;;7.82;3.22;;;24.70;38.70;;;;;;4990876;28;20207;-44
2021/06/16 06:00:46;;;;;;;3.80;3.13;;;24.60;38.10;;;;;;4989018;28;20227;-42
2021/06/16 06:03:13;;;;;;;7.32;3.53;;;24.70;38.20;;;;;;4986412;28;20751;-53
2021/06/16 06:05:39;;;;;;;4.60;3.50;;;24.70;37.90;;;;;;4989920;28;20652;-42
2021/06/16 06:08:06;;;;;;;5.55;3.75;;;24.60;37.30;;;;;;4990345;28;20722;-42
2021/06/16 06:10:32;;;;;;;6.30;4.32;;;24.50;37.80;;;;;;4989268;28;20207;-43
2021/06/16 06:12:59;;;;;;;5.50;3.92;;;24.00;37.50;;;;;;4992653;28;20218;-44
2021/06/16 06:15:25;;;;;;;4.63;4.00;;;24.00;38.60;;;;;;4991919;28;20218;-41
2021/06/16 06:17:52;;;;;;;4.78;3.30;;;24.20;38.30;;;;;;4990911;28;20306;-45
2021/06/16 06:20:18;;;;;;;3.42;3.13;;;24.60;38.60;;;;;;4999026;28;20883;-41
2021/06/16 06:22:45;;;;;;;3.78;2.90;;;24.70;38.10;;;;;;4991214;28;20200;-47
2021/06/16 06:25:11;;;;;;;5.57;2.63;;;24.90;38.30;;;;;;4993124;28;20211;-41
2021/06/16 06:27:37;;;;;;;4.18;3.10;;;25.00;38.30;;;;;;4993556;28;20699;-39
2021/06/16 06:30:04;;;;;;;3.72;2.80;;;25.00;38.50;;;;;;5003477;28;20214;-38
2021/06/16 06:32:30;;;;;;;4.78;3.03;;;25.10;38.70;;;;;;4985236;28;21065;-49
2021/06/16 06:34:57;;;;;;;4.28;2.78;;;25.20;39.00;;;;;;4988974;28;20833;-46
2021/06/16 06:37:23;;;;;;;3.53;2.88;;;25.20;38.90;;;;;;4994195;28;20743;-52
2021/06/16 06:39:50;;;;;;;5.28;3.00;;;25.20;38.80;;;;;;4994614;28;20223;-47
2021/06/16 06:42:16;;;;;;;5.20;2.88;;;25.20;39.00;;;;;;4993640;28;20648;-42
2021/06/16 06:44:43;;;;;;;4.63;2.78;;;25.20;38.90;;;;;;4993269;28;20204;-46
2021/06/16 06:47:09;;;;;;;3.00;2.70;;;25.20;38.90;;;;;;4993664;28;20224;-47
2021/06/16 06:49:36;;;;;;;3.20;2.78;;;25.30;39.20;;;;;;4993506;28;20206;-42
2021/06/16 06:52:02;;;;;;;4.30;2.83;;;25.30;39.20;;;;;;4993541;28;20204;-46
2021/06/16 06:54:28;;;;;;;4.60;2.50;;;25.30;39.10;;;;;;4994088;28;20214;-39
2021/06/16 06:56:55;;;;;;;3.72;2.28;;;25.30;39.10;;;;;;4994099;28;20224;-44
2021/06/16 06:59:21;;;;;;;4.57;2.55;;;25.30;39.10;;;;;;4993518;28;20203;-49
2021/06/16 07:01:48;;;;;;;4.10;2.40;;;25.30;39.20;;;;;;4992467;28;20231;-47
2021/06/16 07:04:14;;;;;;;2.80;2.50;;;25.30;39.20;;;;;;4992997;28;20204;-44
2021/06/16 07:06:41;;;;;;;3.17;2.30;;;25.30;39.10;;;;;;4992926;28;20234;-46
2021/06/16 07:09:07;;;;;;;2.78;2.25;;;25.30;39.10;;;;;;4987292;28;20282;-48
2021/06/16 07:11:34;;;;;;;2.20;2.00;;;25.30;39.20;;;;;;4992665;28;20208;-47
2021/06/16 07:14:01;;;;;;;2.75;1.98;;;25.30;39.20;;;;;;4993813;28;20223;-46
2021/06/16 07:16:27;;;;;;;2.95;2.10;;;25.30;39.20;;;;;;4993499;28;20244;-43
2021/06/16 07:18:53;;;;;;;3.10;2.28;;;25.30;39.20;;;;;;4993099;28;20200;-41
2021/06/16 07:21:20;;;;;;;2.75;2.38;;;25.30;39.20;;;;;;4992569;28;20239;-38
2021/06/16 07:23:46;;;;;;;2.22;2.03;;;25.30;39.20;;;;;;4991371;28;20210;-39
2021/06/16 07:26:13;;;;;;;4.72;2.05;;;25.30;39.20;;;;;;4992601;28;20232;-39
2021/06/16 07:28:39;;;;;;;3.15;2.03;;;25.30;39.20;;;;;;4993128;28;20196;-40
2021/06/16 07:31:06;;;;;;;2.50;2.00;;;25.40;39.20;;;;;;4992574;28;20230;-48
2021/06/16 07:33:32;;;;;;;3.58;2.50;;;25.30;39.20;;;;;;4992469;28;20196;-38
2021/06/16 07:35:58;;;;;;;4.30;2.10;;;25.30;39.20;;;;;;4993351;28;20224;-42
2021/06/16 07:38:25;;;;;;;2.03;1.80;;;25.40;39.20;;;;;;4993323;28;20208;-48
2021/06/16 07:40:51;;;;;;;2.42;2.00;;;25.40;39.20;;;;;;4992193;28;20223;-41
2021/06/16 07:43:18;;;;;;;2.63;1.95;;;25.40;39.20;;;;;;4991544;28;20233;-40
2021/06/16 07:45:44;;;;;;;2.03;1.83;;;25.40;39.20;;;;;;4991677;28;20249;-52
2021/06/16 07:48:11;;;;;;;2.33;2.05;;;25.40;39.20;;;;;;4993327;28;20532;-42
2021/06/16 07:50:38;;;;;;;2.10;1.90;;;25.40;39.20;;;;;;4992449;28;20519;-43
2021/06/16 07:53:05;;;;;;;2.28;2.13;;;25.40;39.20;;;;;;4992929;28;20278;-49
2021/06/16 07:55:31;;;;;;;2.47;1.73;;;25.40;39.20;;;;;;4992522;28;20298;-38
2021/06/16 07:57:57;;;;;;;1.83;1.73;;;25.40;39.20;;;;;;4992997;28;20208;-39
2021/06/16 08:00:24;;;;;;;2.28;1.90;;;25.40;39.20;;;;;;4992598;28;20239;-45
2021/06/16 08:02:50;;;;;;;2.00;1.90;;;25.40;39.20;;;;;;4992086;28;20234;-39
2021/06/16 08:05:17;;;;;;;2.28;2.00;;;25.40;39.20;;;;;;4992516;28;20210;-41
2021/06/16 08:07:43;;;;;;;2.20;2.00;;;25.40;39.20;;;;;;4992616;28;20228;-40
2021/06/16 08:10:10;;;;;;;2.35;2.08;;;25.40;39.20;;;;;;4993060;28;20294;-41
2021/06/16 08:12:36;;;;;;;2.03;1.73;;;25.40;39.20;;;;;;4991915;28;20215;-47
2021/06/16 08:15:03;;;;;;;2.00;1.80;;;25.40;39.20;;;;;;4992850;28;20203;-49
2021/06/16 08:17:29;;;;;;;3.05;2.00;;;25.40;39.20;;;;;;4992232;28;20227;-40
2021/06/16 08:19:56;;;;;;;1.88;1.70;;;25.40;39.20;;;;;;4992617;28;20230;-50
2021/06/16 08:22:22;;;;;;;1.80;1.70;;;25.40;39.20;;;;;;4991722;28;20231;-47
2021/06/16 08:24:48;;;;;;;2.42;2.00;;;25.40;39.20;;;;;;4990815;28;20208;-48
2021/06/16 08:27:15;;;;;;;1.80;1.70;;;25.40;39.20;;;;;;4992621;28;20617;-41
2021/06/16 08:29:41;;;;;;;2.17;1.83;;;25.40;39.20;;;;;;4988942;28;20211;-39
2021/06/16 08:32:08;;;;;;;2.08;1.80;;;25.40;39.20;;;;;;4989529;28;20298;-39
2021/06/16 08:34:35;;;;;;;2.20;2.00;;;25.40;39.20;;;;;;4991761;28;20287;-53
2021/06/16 08:37:02;;;;;;;2.15;1.95;;;25.40;39.20;;;;;;4991992;28;20227;-46
2021/06/16 08:39:28;;;;;;;2.13;1.92;;;25.40;39.20;;;;;;4985549;28;20210;-44
2021/06/16 08:41:55;;;;;;;1.98;1.77;;;25.50;39.30;;;;;;4991159;28;20238;-44
2021/06/16 08:44:21;;;;;;;2.67;2.00;;;25.50;39.30;;;;;;4991882;28;20195;-43
2021/06/16 08:46:48;;;;;;;3.17;2.40;;;25.50;39.40;;;;;;4991399;28;20230;-44
2021/06/16 08:49:15;;;;;;;3.15;1.90;;;25.50;39.30;;;;;;4991485;28;20300;-48
2021/06/16 08:51:41;;;;;;;2.90;2.17;;;25.40;39.20;;;;;;4985842;28;20200;-39
2021/06/16 08:54:07;;;;;;;2.38;2.17;;;25.50;39.30;;;;;;4991132;28;20207;-40
2021/06/16 08:56:34;;;;;;;3.70;2.38;;;25.50;39.30;;;;;;4988158;28;20224;-42
2021/06/16 08:59:00;;;;;;;4.13;2.65;;;25.50;39.50;;;;;;4990381;28;20287;-41
2021/06/16 09:01:27;;;;;;;3.25;2.30;;;25.60;41.20;;;;;;4989352;28;20243;-48
2021/06/16 09:03:53;;;;;;;4.05;2.17;;;25.60;40.50;;;;;;4991300;28;20204;-42
2021/06/16 09:06:20;;;;;;;2.90;2.13;;;25.60;40.70;;;;;;4995048;28;20302;-38
2021/06/16 09:08:46;;;;;;;3.25;2.05;;;25.60;40.70;;;;;;4992391;28;20212;-41
2021/06/16 09:11:13;;;;;;;3.33;2.20;;;25.60;40.80;;;;;;4986743;28;20210;-39
2021/06/16 09:13:40;;;;;;;3.40;1.98;;;25.60;40.90;;;;;;4991179;28;20262;-52
2021/06/16 09:16:07;;;;;;;3.78;2.00;;;25.60;40.70;;;;;;4990903;28;20700;-45
2021/06/16 09:18:33;;;;;;;2.15;1.95;;;25.60;40.60;;;;;;4990963;28;20617;-48
2021/06/16 09:21:00;;;;;;;3.35;2.10;;;25.60;40.70;;;;;;4988877;28;20618;-39
2021/06/16 09:23:27;;;;;;;3.88;2.13;;;25.60;40.50;;;;;;4990136;28;20796;-55
2021/06/16 09:25:53;;;;;;;4.13;2.35;;;25.60;40.80;;;;;;4990550;28;20224;-42
2021/06/16 09:28:20;;;;;;;3.20;2.00;;;25.60;40.70;;;;;;4984501;28;20294;-50
2021/06/16 09:30:46;;;;;;;2.30;2.10;;;25.60;40.70;;;;;;4989097;28;20655;-39
2021/06/16 09:33:12;;;;;;;2.58;2.15;;;25.60;40.70;;;;;;4988597;28;20647;-42
2021/06/16 09:35:39;;;;;;;2.38;2.08;;;25.60;40.80;;;;;;4985203;28;20224;-44
2021/06/16 09:38:05;;;;;;;5.05;2.45;;;25.60;40.70;;;;;;4987091;28;20270;-44
2021/06/16 09:40:32;;;;;;;2.45;2.13;;;25.60;40.70;;;;;;4990694;28;20215;-43
2021/06/16 09:42:59;;;;;;;2.30;2.00;;;25.60;40.60;;;;;;4990685;28;20239;-56
2021/06/16 09:45:26;;;;;;;2.55;2.13;;;25.60;40.50;;;;;;4985641;28;20681;-45
2021/06/16 09:47:52;;;;;;;2.53;2.08;;;25.60;40.50;;;;;;4983150;28;20217;-47
2021/06/16 09:50:19;;;;;;;2.92;1.95;;;25.60;40.40;;;;;;4995605;28;20218;-43
2021/06/16 09:52:47;;;;;;;2.58;2.30;;;25.60;40.40;;;;;;4994503;28;20207;-55
2021/06/16 09:55:13;;;;;;;2.47;2.00;;;25.60;40.30;;;;;;4994603;28;20223;-55
2021/06/16 09:57:40;;;;;;;2.55;2.17;;;25.60;40.30;;;;;;4994568;28;20224;-45
2021/06/16 10:00:08;;;;;;;3.00;2.33;;;25.60;40.20;;;;;;4994551;28;20196;-45
2021/06/16 10:02:35;;;;;;;2.33;2.10;;;25.60;40.10;;;;;;4994219;28;20228;-45
2021/06/16 10:05:02;;;;;;;3.53;2.22;;;25.50;40.00;;;;;;4992502;28;20223;-41
2021/06/16 10:07:29;;;;;;;3.25;1.98;;;25.60;40.10;;;;;;4989739;28;20207;-47
2021/06/16 10:09:55;;;;;;;3.15;2.25;;;25.60;39.90;;;;;;4992198;28;20298;-49
2021/06/16 10:12:22;;;;;;;2.95;2.65;;;25.60;39.70;;;;;;4986924;28;20332;-46
2021/06/16 10:14:48;;;;;;;2.08;1.73;;;25.60;40.00;;;;;;4992917;28;20219;-47
2021/06/16 10:17:15;;;;;;;3.55;2.80;;;25.60;40.00;;;;;;4990778;28;20204;-48
2021/06/16 10:19:42;;;;;;;2.63;2.20;;;25.60;40.10;;;;;;4992454;28;20210;-43
2021/06/16 10:22:08;;;;;;;2.58;2.25;;;25.60;40.00;;;;;;4993312;28;20236;-43
2021/06/16 10:24:34;;;;;;;3.35;1.90;;;25.60;39.90;;;;;;4992459;28;20204;-43
2021/06/16 10:27:01;;;;;;;3.58;2.15;;;25.60;39.80;;;;;;4993658;28;20282;-51
2021/06/16 10:29:28;;;;;;;4.35;2.10;;;25.60;39.90;;;;;;4993243;28;20215;-47
2021/06/16 10:31:54;;;;;;;3.55;2.10;;;25.60;40.00;;;;;;4985659;28;20210;-42
2021/06/16 10:34:21;;;;;;;7.65;2.53;;;25.60;39.90;;;;;;4994185;28;20290;-41
2021/06/16 10:36:47;;;;;;;4.82;3.08;;;25.60;39.90;;;;;;4993597;28;20200;-41
2021/06/16 10:39:13;;;;;;;8.95;2.75;;;25.60;39.80;;;;;;4987088;28;20202;-39
2021/06/16 10:41:40;;;;;;;8.68;3.22;;;25.60;39.90;;;;;;4992340;28;20235;-38
2021/06/16 10:44:07;;;;;;;7.97;3.30;;;25.60;40.10;;;;;;4988542;28;20295;-46
2021/06/16 10:46:33;;;;;;;10.02;3.72;;;25.60;40.20;;;;;;4992608;28;20199;-42
2021/06/16 10:49:01;;;;;;;9.13;3.40;;;25.60;40.40;;;;;;4991793;28;20207;-47
2021/06/16 10:51:27;;;;;;;5.82;3.10;;;25.60;40.70;;;;;;4991689;28;20577;-49
2021/06/16 10:53:54;;;;;;;6.03;2.60;;;25.60;41.00;;;;;;4993812;28;20319;-54
2021/06/16 10:56:20;;;;;;;6.03;2.97;;;25.60;40.90;;;;;;4991583;28;20220;-52
2021/06/16 10:58:46;;;;;;;6.70;2.63;;;25.60;40.80;;;;;;4992875;28;20199;-51
2021/06/16 11:01:13;;;;;;;8.30;3.17;;;25.60;40.80;;;;;;4988376;28;20605;-41
2021/06/16 11:03:39;;;;;;;5.72;3.13;;;25.60;40.90;;;;;;4979352;28;20255;-55
2021/06/16 11:06:06;;;;;;;8.52;2.67;;;25.60;40.80;;;;;;4981738;28;20227;-46
2021/06/16 11:08:32;;;;;;;4.35;3.10;;;25.60;40.70;;;;;;4993551;28;20199;-52
2021/06/16 11:10:59;;;;;;;5.82;2.75;;;25.60;40.70;;;;;;4989037;28;20200;-46
2021/06/16 11:13:25;;;;;;;4.30;2.67;;;25.60;40.60;;;;;;4990618;28;20228;-42
2021/06/16 11:15:52;;;;;;;4.40;2.58;;;25.60;40.70;;;;;;4993863;28;20228;-47
2021/06/16 11:18:18;;;;;;;5.80;3.33;;;25.60;40.30;;;;;;4989297;28;20200;-46
2021/06/16 11:20:44;;;;;;;4.82;2.50;;;25.60;40.40;;;;;;4987993;28;20204;-53
2021/06/16 11:23:11;;;;;;;5.68;2.70;;;25.60;40.20;;;;;;4992219;28;20227;-46
2021/06/16 11:25:37;;;;;;;3.65;2.53;;;25.60;40.20;;;;;;4974839;28;20221;-42
2021/06/16 11:28:06;;;;;;;4.13;2.75;;;25.60;40.10;;;;;;4974104;28;20208;-45
2021/06/16 11:30:33;;;;;;;4.50;2.45;;;25.60;40.10;;;;;;4991713;28;20208;-42
2021/06/16 11:32:59;;;;;;;6.80;2.60;;;25.50;40.00;;;;;;4981777;28;20240;-42
2021/06/16 11:35:26;;;;;;;4.60;2.08;;;25.60;40.10;;;;;;4973396;28;20319;-54
2021/06/16 11:37:52;;;;;;;4.90;2.67;;;25.60;40.00;;;;;;4992267;28;20212;-51
2021/06/16 11:40:18;;;;;;;4.95;2.38;;;25.60;40.00;;;;;;4986191;28;20202;-53
2021/06/16 11:42:45;;;;;;;4.03;2.50;;;25.60;40.00;;;;;;4976392;28;20232;-56
2021/06/16 11:45:11;;;;;;;4.15;2.47;;;25.60;40.00;;;;;;4977593;28;20230;-48
2021/06/16 11:47:38;;;;;;;6.85;2.30;;;25.60;40.00;;;;;;4992119;28;20204;-51
2021/06/16 11:50:06;;;;;;;4.50;2.60;;;25.60;39.90;;;;;;4993070;28;20210;-46
2021/06/16 11:52:33;;;;;;;3.95;2.13;;;25.60;39.90;;;;;;4991585;28;20298;-49
2021/06/16 11:54:59;;;;;;;2.65;2.45;;;25.50;39.90;;;;;;4992745;28;20223;-46
2021/06/16 11:57:25;;;;;;;4.60;2.53;;;25.60;39.90;;;;;;4991870;28;20214;-50
2021/06/16 11:59:52;;;;;;;5.45;2.35;;;25.60;39.90;;;;;;4992208;28;20208;-54
2021/06/16 12:02:20;;;;;;;3.90;2.35;;;25.60;39.90;;;;;;4981737;28;20291;-49
2021/06/16 12:04:46;;;;;;;3.10;2.15;;;25.60;39.90;;;;;;4978276;28;20224;-47
2021/06/16 12:07:13;;;;;;;4.40;2.50;;;25.60;39.90;;;;;;4992327;28;20214;-46
2021/06/16 12:09:39;;;;;;;3.45;2.30;;;25.60;39.90;;;;;;4991226;28;20211;-47
2021/06/16 12:12:06;;;;;;;2.63;1.90;;;25.60;39.90;;;;;;4991196;28;20215;-55
2021/06/16 12:14:32;;;;;;;3.10;2.28;;;25.60;39.80;;;;;;4991476;28;20227;-45
2021/06/16 12:16:59;;;;;;;2.70;2.30;;;25.60;39.80;;;;;;4990534;28;20206;-50
2021/06/16 12:19:25;;;;;;;4.22;2.38;;;25.50;39.80;;;;;;4991173;28;20223;-55
2021/06/16 12:21:52;;;;;;;3.28;1.95;;;25.60;39.80;;;;;;4989979;28;20234;-49
2021/06/16 12:24:18;;;;;;;3.20;2.30;;;25.60;39.90;;;;;;4991089;28;20230;-42
2021/06/16 12:26:45;;;;;;;3.47;2.03;;;25.60;39.90;;;;;;4991794;28;20210;-45
2021/06/16 12:29:11;;;;;;;2.55;2.35;;;25.60;39.80;;;;;;4990106;28;20733;-51
2021/06/16 12:31:45;;;;;;;4.60;2.92;;;25.50;39.70;;;;;;4989985;28;20726;-54
2021/06/16 12:34:13;;;;;;;4.32;2.20;;;25.60;39.80;;;;;;4986829;28;20762;-48
2021/06/16 12:36:39;;;;;;;2.78;2.17;;;25.60;39.70;;;;;;4992312;28;20258;-46
2021/06/16 12:39:06;;;;;;;4.70;2.80;;;25.60;39.80;;;;;;4986601;28;20200;-50
2021/06/16 12:41:33;;;;;;;4.25;2.40;;;25.60;40.00;;;;;;4988306;28;20757;-45
2021/06/16 12:43:59;;;;;;;3.97;2.67;;;25.60;40.10;;;;;;4991642;28;20533;-53